createdAt,value
2022-08-19T00:02:43.985Z,63.37
2022-08-19T00:07:53.881Z,63.11
2022-08-19T00:12:57.546Z,62.86
2022-08-19T00:18:01.349Z,62.85
2022-08-19T00:23:04.748Z,62.83
2022-08-19T00:28:08.367Z,62.72
2022-08-19T00:33:12.172Z,62.75
2022-08-19T00:38:16.119Z,63.15
2022-08-19T00:43:40.034Z,63.17
2022-08-19T00:48:43.418Z,63.49
2022-08-19T00:53:47.355Z,63.75
2022-08-19T00:58:51.714Z,63.67
2022-08-19T01:03:56.765Z,64.06
2022-08-19T01:09:01.689Z,64.31
2022-08-19T01:14:06.024Z,64.18
2022-08-19T01:19:30.019Z,64.35
2022-08-19T01:24:33.843Z,64.68
2022-08-19T01:29:43.672Z,65.11
2022-08-19T01:34:48.351Z,65.43
2022-08-19T01:39:51.882Z,65.44
2022-08-19T01:44:55.282Z,65.58
2022-08-19T01:49:59.945Z,66.04
2022-08-19T01:55:03.729Z,66.01
2022-08-19T02:00:12.894Z,66.54
2022-08-19T02:05:17.746Z,66.45
2022-08-19T02:10:23.836Z,66.56
2022-08-19T02:15:27.289Z,66.63
2022-08-19T02:20:30.747Z,66.46
2022-08-19T02:25:34.469Z,66.44
2022-08-19T02:30:37.927Z,66.61
2022-08-19T02:35:46.623Z,66.80
2022-08-19T02:40:53.537Z,66.89
2022-08-19T02:45:57.396Z,66.86
2022-08-19T02:51:00.755Z,66.75
2022-08-19T02:56:09.228Z,66.93
2022-08-19T03:01:30.999Z,67.36
2022-08-19T03:06:40.735Z,67.78
2022-08-19T03:11:44.525Z,68.11
2022-08-19T03:16:53.532Z,68.11
2022-08-19T03:21:56.856Z,68.31
2022-08-19T03:27:00.387Z,68.86
2022-08-19T03:32:07.192Z,68.77
2022-08-19T03:37:16.331Z,68.64
2022-08-19T03:42:32.824Z,68.94
2022-08-19T03:47:43.103Z,69.31
2022-08-19T03:52:53.214Z,69.28
2022-08-19T03:57:59.358Z,69.64
2022-08-19T04:03:03.067Z,69.74
2022-08-19T04:08:09.694Z,69.74
2022-08-19T04:13:19.615Z,69.54
2022-08-19T04:18:22.962Z,69.33
2022-08-19T04:23:26.363Z,69.08
2022-08-19T04:28:30.100Z,69.00
2022-08-19T04:33:34.945Z,68.93
2022-08-19T04:38:38.361Z,68.71
2022-08-19T04:43:41.772Z,68.71
2022-08-19T04:48:49.515Z,68.66
2022-08-19T04:53:53.864Z,68.42
2022-08-19T04:58:58.733Z,68.17
2022-08-19T05:04:05.887Z,67.88
2022-08-19T05:09:09.597Z,67.58
2022-08-19T05:14:16.492Z,67.19
2022-08-19T05:19:38.439Z,66.86
2022-08-19T05:25:02.566Z,66.64
2022-08-19T05:30:06.915Z,66.18
2022-08-19T05:35:11.776Z,65.76
2022-08-19T05:40:15.371Z,65.63
2022-08-19T05:45:18.852Z,65.57
2022-08-19T05:50:23.609Z,65.46
2022-08-19T05:55:26.930Z,65.31
2022-08-19T06:00:32.787Z,65.29
2022-08-19T06:05:49.516Z,65.17
2022-08-19T06:10:56.944Z,64.99
2022-08-19T06:16:00.330Z,64.93
2022-08-19T06:21:05.381Z,64.73
2022-08-19T06:26:13.916Z,64.47
2022-08-19T06:31:22.177Z,63.99
2022-08-19T06:36:31.357Z,63.65
2022-08-19T06:41:48.798Z,62.78
2022-08-19T06:46:56.589Z,62.54
2022-08-19T06:52:02.030Z,62.13
2022-08-19T06:57:06.765Z,61.47
2022-08-19T07:02:10.619Z,60.90
2022-08-19T07:07:21.545Z,60.69
2022-08-19T07:12:25.499Z,59.96
2022-08-19T07:17:30.556Z,59.89
2022-08-19T07:22:35.914Z,59.03
2022-08-19T07:27:40.034Z,58.03
2022-08-19T07:32:43.773Z,57.65
2022-08-19T07:37:47.751Z,57.17
2022-08-19T07:42:51.095Z,56.51
2022-08-19T07:47:54.796Z,55.71
2022-08-19T07:52:58.286Z,54.65
2022-08-19T07:58:01.883Z,54.80
2022-08-19T08:03:07.102Z,54.36
2022-08-19T08:08:29.204Z,53.70
2022-08-19T08:13:36.468Z,52.99
2022-08-19T08:18:50.243Z,52.48
2022-08-19T08:23:56.927Z,51.96
2022-08-19T08:29:00.738Z,51.20
2022-08-19T08:34:04.462Z,50.94
2022-08-19T08:39:07.989Z,50.78
2022-08-19T08:44:25.108Z,50.58
2022-08-19T08:50:19.531Z,49.76
2022-08-19T08:55:36.976Z,48.76
2022-08-19T09:00:47.745Z,48.60
2022-08-19T09:06:02.526Z,47.97
2022-08-19T09:11:13.262Z,47.67
2022-08-19T09:16:27.898Z,46.81
2022-08-19T09:21:33.353Z,46.35
2022-08-19T09:26:47.807Z,45.92
2022-08-19T09:31:57.585Z,44.89
2022-08-19T09:37:01.347Z,44.52
2022-08-19T09:42:06.159Z,44.13
2022-08-19T09:47:20.069Z,42.78
2022-08-19T09:52:23.466Z,42.39
2022-08-19T09:57:28.277Z,42.14
2022-08-19T10:02:31.788Z,41.65
2022-08-19T10:07:36.331Z,41.50
2022-08-19T10:12:40.769Z,40.83
2022-08-19T10:17:48.166Z,40.66
2022-08-19T10:23:02.608Z,40.53
2022-08-19T10:28:10.663Z,40.72
2022-08-19T10:33:15.310Z,39.83
2022-08-19T10:38:39.512Z,39.78
2022-08-19T10:44:06.631Z,38.74
2022-08-19T10:49:12.360Z,38.43
2022-08-19T10:54:16.251Z,38.82
2022-08-19T10:59:35.224Z,38.79
2022-08-19T11:04:41.582Z,39.06
2022-08-19T11:09:45.152Z,39.13
2022-08-19T11:14:51.331Z,39.33
2022-08-19T11:19:54.743Z,39.35
2022-08-19T11:24:58.157Z,39.13
2022-08-19T11:30:01.958Z,36.99
2022-08-19T11:35:06.553Z,36.27
2022-08-19T11:40:11.215Z,35.88
2022-08-19T11:45:15.515Z,35.63
2022-08-19T11:50:20.324Z,35.67
2022-08-19T11:55:24.765Z,35.29
2022-08-19T12:00:28.199Z,35.31
2022-08-19T12:05:31.719Z,35.44
2022-08-19T12:10:38.782Z,35.76
2022-08-19T12:15:42.538Z,35.81
2022-08-19T12:20:47.410Z,36.00
2022-08-19T12:25:52.916Z,36.33
2022-08-19T12:30:58.350Z,36.37
2022-08-19T12:36:06.611Z,36.58
2022-08-19T12:41:15.190Z,36.58
2022-08-19T12:46:22.261Z,36.83
2022-08-19T12:51:28.148Z,36.92
2022-08-19T12:56:32.478Z,37.22
2022-08-19T13:01:36.206Z,37.06
2022-08-19T13:06:39.716Z,36.87
2022-08-19T13:11:44.768Z,36.67
2022-08-19T13:16:48.136Z,36.21
2022-08-19T13:21:52.266Z,36.14
2022-08-19T13:27:04.125Z,35.90
2022-08-19T13:32:25.981Z,35.72
2022-08-19T13:37:44.521Z,35.69
2022-08-19T13:42:51.739Z,35.33
2022-08-19T13:47:59.875Z,34.63
2022-08-19T13:53:04.156Z,34.36
2022-08-19T13:58:08.487Z,34.53
2022-08-19T14:03:12.599Z,34.49
2022-08-19T14:08:16.479Z,34.11
2022-08-19T14:13:23.085Z,34.39
2022-08-19T14:18:28.609Z,34.38
2022-08-19T14:23:34.618Z,34.15
2022-08-19T14:28:38.236Z,33.81
2022-08-19T14:33:41.784Z,33.97
2022-08-19T14:38:45.477Z,33.67
2022-08-19T14:43:53.472Z,33.75
2022-08-19T14:48:59.959Z,33.72
2022-08-19T14:54:04.118Z,33.65
2022-08-19T14:59:07.625Z,33.73
2022-08-19T15:04:11.285Z,33.56
2022-08-19T15:09:15.273Z,33.37
2022-08-19T15:14:18.688Z,33.30
2022-08-19T15:19:22.326Z,33.40
2022-08-19T15:24:27.055Z,33.49
2022-08-19T15:29:30.461Z,33.33
2022-08-19T15:34:34.299Z,33.26
2022-08-19T15:39:37.944Z,33.40
2022-08-19T15:44:41.423Z,33.65
2022-08-19T15:49:45.245Z,33.99
2022-08-19T15:54:48.764Z,34.27
2022-08-19T16:00:11.579Z,34.36
2022-08-19T16:05:40.455Z,34.21
2022-08-19T16:10:43.861Z,34.37
2022-08-19T16:15:47.678Z,34.26
2022-08-19T16:20:51.910Z,34.12
2022-08-19T16:25:55.189Z,34.15
2022-08-19T16:30:58.640Z,34.22
2022-08-19T16:36:07.074Z,34.71
2022-08-19T16:41:14.681Z,35.28
2022-08-19T16:46:19.849Z,35.94
2022-08-19T16:51:26.115Z,36.49
2022-08-19T16:56:31.475Z,36.99
2022-08-19T17:01:34.839Z,37.49
2022-08-19T17:06:39.855Z,37.83
2022-08-19T17:11:43.252Z,38.20
2022-08-19T17:16:46.739Z,38.64
2022-08-19T17:21:50.050Z,38.96
2022-08-19T17:26:53.397Z,39.42
2022-08-19T17:31:56.804Z,39.87
2022-08-19T17:37:00.145Z,40.32
2022-08-19T17:42:03.624Z,40.72
2022-08-19T17:47:09.403Z,41.24
2022-08-19T17:52:12.820Z,41.56
2022-08-19T17:57:16.329Z,41.96
2022-08-19T18:02:22.018Z,42.37
2022-08-19T18:07:26.333Z,42.67
2022-08-19T18:12:29.746Z,43.25
2022-08-19T18:17:33.670Z,43.47
2022-08-19T18:22:42.976Z,43.74
2022-08-19T18:27:48.060Z,44.21
2022-08-19T18:32:54.563Z,44.67
2022-08-19T18:38:02.335Z,44.92
2022-08-19T18:43:25.638Z,45.14
2022-08-19T18:48:48.017Z,45.53
2022-08-19T18:53:51.839Z,45.57
2022-08-19T18:58:56.878Z,45.71
2022-08-19T19:04:10.956Z,46.06
2022-08-19T19:09:19.904Z,46.27
2022-08-19T19:14:48.571Z,46.51
2022-08-19T19:19:53.400Z,46.85
2022-08-19T19:24:57.391Z,47.17
2022-08-19T19:30:01.100Z,47.26
2022-08-19T19:35:06.789Z,47.44
2022-08-19T19:40:10.852Z,47.65
2022-08-19T19:45:19.339Z,47.65
2022-08-19T19:50:22.741Z,47.85
2022-08-19T19:55:27.085Z,47.87
2022-08-19T20:00:31.085Z,47.95
2022-08-19T20:05:34.527Z,47.89
2022-08-19T20:10:39.534Z,47.90
2022-08-19T20:15:46.218Z,47.87
2022-08-19T20:20:50.495Z,47.81
2022-08-19T20:25:54.830Z,47.78
2022-08-19T20:30:58.864Z,47.71
2022-08-19T20:36:02.875Z,47.64
2022-08-19T20:41:06.712Z,47.54
2022-08-19T20:46:10.125Z,47.49
2022-08-19T20:51:14.371Z,47.44
2022-08-19T20:56:17.826Z,47.33
2022-08-19T21:01:23.964Z,47.24
2022-08-19T21:06:27.363Z,47.24
2022-08-19T21:11:32.546Z,47.21
2022-08-19T21:16:36.138Z,47.20
2022-08-19T21:21:39.657Z,47.15
2022-08-19T21:26:42.976Z,47.08
2022-08-19T21:31:46.666Z,47.08
2022-08-19T21:36:50.107Z,47.09
2022-08-19T21:41:53.614Z,47.08
2022-08-19T21:46:57.341Z,47.13
2022-08-19T21:52:02.184Z,47.22
2022-08-19T21:57:10.683Z,47.30
2022-08-19T22:02:20.279Z,47.36
2022-08-19T22:07:24.305Z,47.46
2022-08-19T22:12:35.910Z,47.58
2022-08-19T22:17:41.038Z,47.69
2022-08-19T22:23:02.091Z,47.81
2022-08-19T22:28:11.175Z,48.00
2022-08-19T22:33:19.795Z,48.29
2022-08-19T22:38:25.044Z,48.51
2022-08-19T22:43:31.942Z,48.99
2022-08-19T22:48:35.337Z,49.33
2022-08-19T22:53:43.005Z,49.62
2022-08-19T22:58:50.272Z,49.65
2022-08-19T23:03:53.839Z,49.72
2022-08-19T23:08:57.595Z,50.06
2022-08-19T23:14:00.979Z,51.46
2022-08-19T23:19:04.937Z,53.10
2022-08-19T23:24:10.194Z,53.39
2022-08-19T23:29:32.142Z,54.28
2022-08-19T23:34:35.559Z,54.90
2022-08-19T23:39:39.282Z,55.18
2022-08-19T23:44:52.326Z,55.63
2022-08-19T23:49:56.471Z,56.78
2022-08-19T23:55:06.490Z,59.39
